Kennydale, Washington
Current Conditions -  °F | °C
As of 2:53 PM on Friday 28 Nov 2014 (Local Time) from KRNT Reporting Station
Light Rain Light Rain  
Wind Chill: 34°   Ceiling: 1200
Heat Index: 41°   Visibility: 8mi
Dew Point: 39°   Wind: 13mph
Humidity: 93%   Direction: 340°NNW
Pressure: 29.47"   Gusts: 18mph
Location:  47.5152°N, 122.184°W
Report Text: KRNT 282253Z 34011G16KT 8SM -RA BKN012 OVC040 05/04 A2947 RMK AO2 SLP985 P0010 T00500039
Loading
Personal Weather Stations






























Interactive Weather Map New forecast layout! Learn more

10-Day Weather Forecast

Advertisements
Track Severe Weather on mobile